Main page
METAR-TAF:

METAR-TAF

Airports :

Benbecula Airport

Benbecula, Scotland

latitude: 57-28N, longitude: 007-22W, elevation: 6 m

Current weather observation

The report was made 18 minutes ago, at 18:50 UTC
Wind 23 kt from the South with gusts up to 33 kt
Temperature 10°C
Humidity 87%
Pressure 1005 hPa
Visibility: 6000 m
light rain

METAR: EGPL 131850Z AUTO 17023G33KT 6000 -RA BKN005/// OVC047/// 10/08 Q1005

Time: 19:08 (19:08 UTC)

Forecast

The report was made 3 hours and 30 minutes ago, at 15:38 UTC
Forecast valid from 13 at 15 UTC to 13 at 17 UTC
Wind 19 kt from the South
Visibility 10 km or more
Scattered clouds at a height of 2000 ft
Temporary
from 13 at 15 UTC to 13 at 17 UTC
Wind 25 kt from the South/Southwest with gusts up to 35 kt
Probability 40% :
Temporary
from 13 at 15 UTC to 13 at 17 UTC
Visibility: 8000 m
Broken clouds at a height of 1200 ft
light rain showers

TAF: EGPL 131538Z 1315/1317 19019KT 9999 SCT020 TEMPO 1315/1317 20025G35KT PROB40 TEMPO 1315/1317 8000 -SHRA BKN012

Weather observations and forecasts of more than 4000 airports (METAR and TAF reports).

The available stations are represented by yellow and red dots on the map.

Hover mouse over dot to see the name of the station.

Then click to see weather observations and forecasts.

To change the map : click on the green buttons with a black cross to zoom in, on the green button with a dash to zoom out, or on the green arrows for adjacent maps.


METAR-TAF: